Newtown, Missouri
Current Conditions -  °F | °C
As of 4:10 AM on Thursday 27 Nov 2014 (Local Time) from KTVK Reporting Station
Overcast Overcast  
Wind Chill: 12°   Ceiling: 1100
Heat Index: 23°   Visibility: 10mi
Dew Point: 21°   Wind: 12mph
Humidity: 93%   Direction: 290°WNW
Pressure: 30.44"   Gusts: NA
Location:  40.38°N, 93.33°W
Report Text: KTVK 271010Z AUTO 29010KT 10SM BKN011 OVC017 M05/M06 A3044 RMK AO2
Loading
Personal Weather Stations






























Interactive Weather Map New forecast layout! Learn more

10-Day Weather Forecast

Advertisements
Track Severe Weather on mobile